Time;durP1;ratioP1;P1;durP2;ratioP2;P2;SDS_P1;SDS_P2;PMS_P1;PMS_P2;Temp;Humidity;BMP_temperature;BMP_pressure;BME280_temperature;BME280_humidity;BME280_pressure;Samples;Min_cycle;Max_cycle;Signal;HPM_P1;HPM_P2
2023/11/05 00:02:32;;;;;;;;;;;;;;;;;;;;;
2023/11/05 00:05:23;;;;;;;22.10;13.20;;;;;;;7.28;100.00;97568.85;109543;1273;23746;-82
2023/11/05 00:08:00;;;;;;;16.70;12.10;;;;;;;7.34;100.00;97564.60;109275;1273;21981;-81
2023/11/05 00:11:38;;;;;;;;;;;;;;;;;;;;;
2023/11/05 00:14:33;;;;;;;;;;;;;;;;;;;;;
2023/11/05 00:18:00;;;;;;;14.20;10.00;;;;;;;7.49;100.00;97553.52;108912;1271;22008;-81
2023/11/05 00:20:51;;;;;;;14.20;9.40;;;;;;;7.47;100.00;97542.98;108981;1279;23625;-82
2023/11/05 00:23:30;;;;;;;14.10;10.60;;;;;;;7.61;100.00;97558.42;108787;1279;21997;-79
2023/11/05 00:26:30;;;;;;;16.50;11.20;;;;;;;7.63;100.00;97551.91;108507;1286;23823;-81
2023/11/05 00:29:14;;;;;;;18.50;12.00;;;;;;;7.65;100.00;97546.23;108267;1286;23652;-80
2023/11/05 00:32:04;;;;;;;13.30;10.30;;;;;;;7.63;100.00;97539.58;108142;1287;22009;-80
2023/11/05 00:35:14;;;;;;;17.50;10.40;;;;;;;7.55;100.00;97521.16;108359;1282;22183;-84
2023/11/05 00:38:09;;;;;;;15.10;10.50;;;;;;;7.50;100.00;97519.38;108623;1283;22010;-80
2023/11/05 00:41:02;;;;;;;18.80;10.50;;;;;;;7.61;100.00;97535.91;108353;1285;21995;-82
2023/11/05 00:44:00;;;;;;;15.30;10.50;;;;;;;7.65;100.00;97527.55;108742;1278;23097;-81
2023/11/05 00:46:50;;;;;;;14.00;10.90;;;;;;;7.66;100.00;97526.60;109021;1278;22416;-81
2023/11/05 00:49:36;;;;;;;14.30;10.50;;;;;;;7.66;100.00;97519.47;109181;1274;22432;-80
2023/11/05 00:52:21;;;;;;;12.90;10.00;;;;;;;7.66;100.00;97518.27;109308;1274;22446;-82
2023/11/05 00:55:34;;;;;;;14.80;10.80;;;;;;;7.67;100.00;97513.21;109314;1271;21982;-81
2023/11/05 00:58:39;;;;;;;14.20;10.50;;;;;;;7.64;100.00;97502.46;109886;1269;23733;-81
2023/11/05 01:01:32;;;;;;;13.00;10.60;;;;;;;7.66;100.00;97491.07;109635;1269;22839;-81
2023/11/05 01:04:55;;;;;;;12.60;10.00;;;;;;;7.57;100.00;97458.86;109220;1275;23116;-82
2023/11/05 01:07:59;;;;;;;14.40;10.50;;;;;;;7.61;100.00;97467.05;109192;1275;22068;-79
2023/11/05 01:10:39;;;;;;;12.70;10.20;;;;;;;7.56;100.00;97471.40;108870;1275;21989;-81
2023/11/05 01:13:17;;;;;;;14.60;11.00;;;;;;;7.53;100.00;97468.98;109550;1257;23023;-80
2023/11/05 01:16:13;;;;;;;11.90;9.30;;;;;;;7.54;100.00;97459.25;109591;1270;21993;-79
2023/11/05 01:19:12;;;;;;;15.20;9.00;;;;;;;7.40;100.00;97427.56;109489;1270;22165;-79
2023/11/05 01:21:52;;;;;;;14.60;11.00;;;;;;;7.53;100.00;97444.08;109304;1275;23839;-79
2023/11/05 01:24:54;;;;;;;13.70;10.80;;;;;;;7.54;100.00;97439.54;108824;1280;23107;-80
2023/11/05 01:27:58;;;;;;;13.80;10.40;;;;;;;7.56;100.00;97433.17;108916;1281;22206;-81
2023/11/05 01:30:54;;;;;;;16.40;10.20;;;;;;;7.57;100.00;97436.55;108782;1281;22012;-81
2023/11/05 01:34:02;;;;;;;13.80;10.60;;;;;;;7.57;100.00;97441.52;108755;1273;22003;-82
2023/11/05 01:36:50;;;;;;;11.90;9.90;;;;;;;7.61;100.00;97453.16;108830;1280;22147;-80
2023/11/05 01:39:46;;;;;;;14.20;10.20;;;;;;;7.64;100.00;97463.70;108830;1276;23722;-80
2023/11/05 01:43:17;;;;;;;12.50;9.30;;;;;;;7.67;100.00;97466.48;109250;1272;21997;-80
2023/11/05 01:46:28;;;;;;;14.70;9.90;;;;;;;7.70;100.00;97462.62;109030;1277;22225;-80
2023/11/05 01:49:35;;;;;;;25.60;17.10;;;;;;;7.71;100.00;97464.95;109050;1277;21995;-80
2023/11/05 01:52:37;;;;;;;14.00;10.00;;;;;;;7.76;100.00;97470.14;109011;1277;23044;-81
2023/11/05 01:55:16;;;;;;;16.80;10.40;;;;;;;7.79;100.00;97477.66;109100;1277;22345;-80
2023/11/05 01:57:54;;;;;;;13.70;9.10;;;;;;;7.83;100.00;97491.77;108788;1281;21989;-83
2023/11/05 02:00:56;;;;;;;;;;;;;;;;;;;;;
2023/11/05 02:04:34;;;;;;;14.90;10.20;;;;;;;7.89;100.00;97488.61;109322;1274;23738;-81
2023/11/05 02:07:22;;;;;;;10.90;8.70;;;;;;;7.92;100.00;97490.65;109380;1274;21986;-80
2023/11/05 02:10:09;;;;;;;10.90;8.50;;;;;;;7.98;100.00;97497.11;109248;1274;21993;-80
2023/11/05 02:13:00;;;;;;;17.30;9.90;;;;;;;8.02;100.00;97496.46;109205;1275;21999;-82
2023/11/05 02:16:36;;;;;;;13.40;9.40;;;;;;;8.06;100.00;97500.70;109272;1275;22015;-81
2023/11/05 02:19:24;;;;;;;13.80;8.60;;;;;;;8.08;100.00;97502.63;109144;1275;22768;-83
2023/11/05 02:22:27;;;;;;;10.80;7.40;;;;;;;8.09;100.00;97499.26;109463;1269;22738;-81
2023/11/05 02:25:51;;;;;;;11.10;7.40;;;;;;;8.10;100.00;97500.44;109647;1270;23702;-81
2023/11/05 02:29:12;;;;;;;10.80;8.00;;;;;;;8.08;100.00;97492.90;109225;1274;22010;-81
2023/11/05 02:32:24;;;;;;;12.10;7.60;;;;;;;8.09;100.00;97485.11;109765;1269;23054;-80
2023/11/05 02:35:36;;;;;;;15.50;8.20;;;;;;;8.13;100.00;97480.45;109453;1269;21990;-81
2023/11/05 02:39:05;;;;;;;12.30;8.10;;;;;;;8.08;100.00;97457.08;109136;1270;21945;-78
2023/11/05 02:41:39;;;;;;;12.00;9.60;;;;;;;8.20;100.00;97475.96;109254;1274;21994;-81
2023/11/05 02:44:24;;;;;;;21.10;10.40;;;;;;;8.23;100.00;97471.25;109120;1274;21981;-79
2023/11/05 02:47:13;;;;;;;12.50;9.20;;;;;;;8.24;100.00;97469.41;109433;1269;21974;-78
2023/11/05 02:50:21;;;;;;;13.10;7.80;;;;;;;8.23;100.00;97465.30;109739;1269;23654;-81
2023/11/05 02:52:58;;;;;;;11.90;8.00;;;;;;;8.24;100.00;97456.79;109125;1275;23712;-79
2023/11/05 02:56:06;;;;;;;;;;;;;;;8.25;100.00;97450.48;108878;1275;22433;-81
2023/11/05 02:59:16;;;;;;;10.70;7.20;;;;;;;8.13;100.00;97448.75;109166;1271;23040;-82
2023/11/05 03:02:04;;;;;;;9.70;7.70;;;;;;;8.10;100.00;97427.81;109208;1275;21987;-80
2023/11/05 03:05:13;;;;;;;8.70;6.50;;;;;;;8.14;100.00;97416.77;109206;1275;22091;-80
2023/11/05 03:08:27;;;;;;;8.00;6.60;;;;;;;8.16;100.00;97410.20;109158;1275;22015;-81
2023/11/05 03:11:18;;;;;;;8.30;6.80;;;;;;;8.25;100.00;97412.38;109165;1275;23637;-82
2023/11/05 03:14:26;;;;;;;12.50;7.60;;;;;;;8.27;100.00;97409.73;109417;1270;21963;-82
2023/11/05 03:17:07;;;;;;;9.80;7.00;;;;;;;8.29;100.00;97407.55;109702;1265;23084;-80
2023/11/05 03:20:01;;;;;;;10.50;7.70;;;;;;;8.32;100.00;97406.42;110538;1264;22489;-81
2023/11/05 03:22:53;;;;;;;8.90;6.50;;;;;;;8.35;100.00;97408.48;110029;1251;22439;-81
2023/11/05 03:25:51;;;;;;;7.00;6.00;;;;;;;8.36;100.00;97404.20;110445;1264;21990;-80
2023/11/05 03:28:55;;;;;;;8.60;6.40;;;;;;;8.37;100.00;97401.73;110009;1264;22019;-82
2023/11/05 03:31:31;;;;;;;10.70;5.90;;;;;;;8.39;100.00;97396.05;110560;1264;21988;-82
2023/11/05 03:34:26;;;;;;;7.90;5.50;;;;;;;8.42;100.00;97388.22;110158;1267;22381;-80
2023/11/05 03:37:19;;;;;;;7.70;5.30;;;;;;;8.44;100.00;97394.16;109933;1267;21994;-81
2023/11/05 03:40:27;;;;;;;8.90;5.10;;;;;;;8.45;100.00;97399.13;110134;1267;21986;-81
2023/11/05 03:43:15;;;;;;;8.40;5.80;;;;;;;8.49;100.00;97400.16;110272;1267;23433;-82
2023/11/05 03:46:13;;;;;;;10.90;6.40;;;;;;;8.53;100.00;97395.69;109591;1271;21987;-80
2023/11/05 03:48:52;;;;;;;11.30;8.10;;;;;;;8.55;100.00;97398.67;109437;1271;21976;-80
2023/11/05 03:51:26;;;;;;;18.40;8.50;;;;;;;8.57;100.00;97395.34;109673;1271;24467;-80
2023/11/05 03:54:20;;;;;;;9.30;6.20;;;;;;;8.62;100.00;97395.17;109105;1277;22003;-80
2023/11/05 03:57:12;;;;;;;;;;;;;;;8.63;100.00;97383.52;108934;1277;22003;-79
2023/11/05 04:00:13;;;;;;;;;;;;;;;8.53;100.00;97392.40;109142;1277;23042;-78
2023/11/05 04:03:46;;;;;;;;;;;;;;;;;;;;;
2023/11/05 04:06:38;;;;;;;8.80;5.40;;;;;;;8.50;100.00;97384.70;109481;1272;22016;-79
2023/11/05 04:09:20;;;;;;;6.90;4.80;;;;;;;8.55;100.00;97382.88;108975;1279;21994;-79
2023/11/05 04:12:19;;;;;;;8.10;5.00;;;;;;;8.57;100.00;97387.58;109420;1270;21977;-81
2023/11/05 04:15:25;;;;;;;7.10;4.70;;;;;;;8.59;100.00;97380.66;109733;1271;22026;-86
2023/11/05 04:18:15;;;;;;;8.60;5.10;;;;;;;8.65;100.00;97376.95;109408;1270;21999;-86
2023/11/05 04:21:02;;;;;;;9.00;5.20;;;;;;;8.67;100.00;97388.05;109705;1270;23002;-81
2023/11/05 04:23:56;;;;;;;7.60;5.00;;;;;;;8.69;100.00;97393.25;109468;1271;22032;-80
2023/11/05 04:26:45;;;;;;;7.20;5.60;;;;;;;8.71;100.00;97395.36;109348;1269;22074;-81
2023/11/05 04:33:04;;;;;;;6.40;5.10;;;;;;;8.69;100.00;97400.17;109855;1269;23695;-79
2023/11/05 04:35:51;;;;;;;8.30;5.20;;;;;;;8.70;100.00;97407.04;109614;1269;22042;-81
2023/11/05 04:38:39;;;;;;;7.40;5.10;;;;;;;8.72;100.00;97406.19;109682;1269;23022;-81
2023/11/05 04:41:32;;;;;;;6.60;4.40;;;;;;;8.75;100.00;97404.91;109645;1269;23042;-80
2023/11/05 04:44:44;;;;;;;7.10;3.80;;;;;;;8.75;100.00;97403.88;109716;1269;24303;-80
2023/11/05 04:47:33;;;;;;;;;;;;;;;;;;;;;
2023/11/05 04:50:16;;;;;;;6.10;4.60;;;;;;;8.77;100.00;97402.86;109758;1269;23663;-80
2023/11/05 04:53:12;;;;;;;6.30;3.60;;;;;;;8.79;100.00;97394.73;109686;1269;23624;-80
2023/11/05 04:56:07;;;;;;;5.80;4.10;;;;;;;8.78;100.00;97385.62;109872;1269;21980;-81
2023/11/05 04:59:34;;;;;;;8.20;4.00;;;;;;;8.77;100.00;97390.89;110352;1264;21996;-80
2023/11/05 05:02:28;;;;;;;6.50;4.20;;;;;;;8.76;100.00;97393.90;110165;1264;21973;-81
2023/11/05 05:05:16;;;;;;;4.70;3.80;;;;;;;8.77;100.00;97402.52;109484;1274;23038;-81
2023/11/05 05:08:03;;;;;;;19.10;14.80;;;;;;;8.81;100.00;97399.95;109385;1274;23136;-81
2023/11/05 05:11:09;;;;;;;5.90;3.90;;;;;;;8.83;100.00;97402.91;109542;1274;24952;-83
2023/11/05 05:13:52;;;;;;;8.70;4.40;;;;;;;8.85;100.00;97397.94;109317;1277;21999;-82
2023/11/05 05:17:10;;;;;;;;;;;;;;;;;;;;;
2023/11/05 05:19:49;;;;;;;6.40;4.00;;;;;;;8.92;100.00;97390.81;108993;1280;24437;-79
2023/11/05 05:22:33;;;;;;;7.10;3.70;;;;;;;8.96;100.00;97397.78;108877;1280;22007;-82
2023/11/05 05:25:17;;;;;;;4.10;3.10;;;;;;;8.95;100.00;97393.33;102738;1279;8169413;-83
2023/11/05 05:28:20;;;;;;;8.20;5.10;;;;;;;8.98;100.00;97389.31;109127;1279;22035;-83
2023/11/05 05:31:17;;;;;;;5.50;3.90;;;;;;;9.01;100.00;97394.80;108960;1276;22010;-81
2023/11/05 05:33:59;;;;;;;8.20;4.50;;;;;;;9.01;100.00;97399.79;109403;1275;23640;-82
2023/11/05 05:36:50;;;;;;;7.40;4.20;;;;;;;9.03;100.00;97399.14;109619;1273;21995;-79
2023/11/05 05:39:35;;;;;;;5.50;4.10;;;;;;;9.04;100.00;97394.73;110104;1267;23718;-82
2023/11/05 05:42:14;;;;;;;6.20;4.90;;;;;;;9.02;100.00;97388.95;109997;1267;21976;-82
2023/11/05 05:44:50;;;;;;;9.20;4.10;;;;;;;9.01;100.00;97387.63;110042;1267;22743;-81
2023/11/05 05:47:32;;;;;;;5.50;4.10;;;;;;;8.97;100.00;97388.44;109856;1260;21982;-81
2023/11/05 05:50:13;;;;;;;7.10;4.60;;;;;;;8.95;100.00;97390.04;109726;1271;22739;-81
2023/11/05 05:53:04;;;;;;;5.20;4.30;;;;;;;8.94;100.00;97383.64;109811;1271;23618;-82
2023/11/05 05:55:58;;;;;;;6.30;4.10;;;;;;;8.95;100.00;97367.67;109244;1276;22795;-81
2023/11/05 05:58:48;;;;;;;7.50;4.00;;;;;;;8.93;100.00;97362.78;109154;1276;22980;-80
2023/11/05 06:01:40;;;;;;;;;;;;;;;8.91;100.00;97357.21;108766;1282;21992;-79
2023/11/05 06:04:22;;;;;;;6.30;4.50;;;;;;;8.78;100.00;97352.66;108740;1282;22335;-80
2023/11/05 06:07:01;;;;;;;5.00;4.50;;;;;;;8.75;100.00;97350.52;108823;1282;22112;-80
2023/11/05 06:09:44;;;;;;;8.50;5.90;;;;;;;8.75;100.00;97348.58;109056;1280;23145;-82
2023/11/05 06:12:18;;;;;;;4.90;4.50;;;;;;;8.75;100.00;97349.94;108801;1280;21988;-80
2023/11/05 06:15:00;;;;;;;5.30;4.30;;;;;;;8.74;100.00;97346.06;109430;1273;23039;-80
2023/11/05 06:17:48;;;;;;;6.70;4.90;;;;;;;8.78;100.00;97355.45;109545;1273;21989;-80
2023/11/05 06:20:46;;;;;;;8.10;5.00;;;;;;;8.81;100.00;97352.64;110141;1267;21994;-82
2023/11/05 06:23:38;;;;;;;7.60;4.60;;;;;;;8.81;100.00;97347.91;110233;1267;21996;-80
2023/11/05 06:26:19;;;;;;;4.90;3.90;;;;;;;8.83;100.00;97348.83;109881;1254;21978;-80
2023/11/05 06:28:56;;;;;;;5.00;4.20;;;;;;;8.85;100.00;97347.51;110262;1264;22594;-79
2023/11/05 06:31:46;;;;;;;4.80;4.30;;;;;;;8.88;100.00;97348.80;110349;1253;21985;-80
2023/11/05 06:34:56;;;;;;;6.30;4.80;;;;;;;8.87;100.00;97348.53;110078;1268;21995;-84
2023/11/05 06:41:53;;;;;;;6.30;3.90;;;;;;;8.87;100.00;97343.63;109042;1279;23732;-82
2023/11/05 06:44:46;;;;;;;7.70;5.80;;;;;;;8.88;100.00;97331.42;109082;1279;21986;-81
2023/11/05 06:47:53;;;;;;;5.20;3.90;;;;;;;8.91;100.00;97327.20;109049;1279;21992;-79
2023/11/05 06:50:32;;;;;;;6.80;5.90;;;;;;;8.91;100.00;97323.39;109025;1279;22013;-82
2023/11/05 06:53:10;;;;;;;9.60;5.80;;;;;;;9.02;100.00;97331.05;109118;1275;23740;-83
2023/11/05 06:56:24;;;;;;;;;;;;;;;;;;;;;
2023/11/05 06:59:03;;;;;;;4.90;3.90;;;;;;;9.04;100.00;97326.58;108851;1281;22569;-82
2023/11/05 07:02:04;;;;;;;8.00;3.80;;;;;;;9.06;100.00;97319.48;108801;1281;24582;-81
2023/11/05 07:04:42;;;;;;;5.10;4.40;;;;;;;9.09;100.00;97316.47;108983;1281;21999;-82
2023/11/05 07:07:33;;;;;;;6.20;4.40;;;;;;;9.11;100.00;97317.50;108722;1281;23129;-81
2023/11/05 07:10:26;;;;;;;6.00;4.30;;;;;;;9.15;100.00;97319.27;108669;1277;22063;-81
2023/11/05 07:13:08;;;;;;;10.20;5.20;;;;;;;9.17;100.00;97320.64;108571;1281;22004;-80
2023/11/05 07:16:26;;;;;;;6.10;5.40;;;;;;;9.18;100.00;97317.63;108801;1281;22093;-79
2023/11/05 07:19:02;;;;;;;6.80;5.30;;;;;;;9.19;100.00;97313.00;108753;1277;21997;-80
2023/11/05 07:22:26;;;;;;;7.60;5.50;;;;;;;9.16;100.00;97312.72;108917;1277;23810;-82
2023/11/05 07:25:40;;;;;;;6.80;6.20;;;;;;;9.21;100.00;97313.72;109107;1273;23045;-81
2023/11/05 07:28:24;;;;;;;6.70;5.00;;;;;;;9.24;100.00;97310.38;108750;1277;21989;-79
2023/11/05 07:31:26;;;;;;;7.90;5.60;;;;;;;9.28;100.00;97322.52;108831;1277;23034;-80
2023/11/05 07:34:00;;;;;;;7.10;5.40;;;;;;;9.32;100.00;97328.61;108871;1277;23004;-81
2023/11/05 07:36:49;;;;;;;10.70;5.40;;;;;;;9.38;100.00;97328.30;109187;1272;22990;-79
2023/11/05 07:39:35;;;;;;;10.90;5.90;;;;;;;9.44;100.00;97325.42;109363;1270;22102;-80
2023/11/05 07:42:36;;;;;;;8.60;5.20;;;;;;;9.50;100.00;97315.89;109230;1272;22001;-82
2023/11/05 07:45:13;;;;;;;6.50;4.90;;;;;;;9.58;100.00;97315.75;109335;1272;23619;-80
2023/11/05 07:48:01;;;;;;;6.70;5.30;;;;;;;9.64;100.00;97317.34;109436;1272;22009;-80
2023/11/05 07:51:04;;;;;;;6.90;4.70;;;;;;;9.69;100.00;97316.77;109291;1272;22564;-80
2023/11/05 07:53:45;;;;;;;7.80;5.30;;;;;;;9.76;100.00;97323.67;109266;1273;22817;-78
2023/11/05 07:56:25;;;;;;;7.50;4.70;;;;;;;9.84;100.00;97323.71;109124;1270;21980;-78
2023/11/05 07:59:00;;;;;;;5.70;3.90;;;;;;;9.94;100.00;97325.64;109392;1270;22007;-78
2023/11/05 08:01:44;;;;;;;6.10;4.70;;;;;;;10.02;100.00;97323.80;109669;1271;22036;-76
2023/11/05 08:04:25;;;;;;;9.70;5.40;;;;;;;10.04;100.00;97326.41;108882;1276;22628;-77
2023/11/05 08:07:02;;;;;;;6.00;4.20;;;;;;;10.07;100.00;97327.75;109055;1276;23760;-77
2023/11/05 08:09:58;;;;;;;6.40;3.90;;;;;;;10.09;100.00;97325.48;108975;1276;23715;-78
2023/11/05 08:12:38;;;;;;;6.00;3.20;;;;;;;10.08;100.00;97322.77;108934;1276;23035;-81
2023/11/05 08:15:20;;;;;;;5.80;3.40;;;;;;;10.08;100.00;97318.38;109488;1271;23615;-81
2023/11/05 08:18:12;;;;;;;5.90;3.80;;;;;;;10.12;100.00;97322.20;109433;1271;21993;-79
2023/11/05 08:21:34;;;;;;;5.20;3.90;;;;;;;10.09;100.00;97312.97;109651;1271;22221;-79
2023/11/05 08:24:06;;;;;;;5.50;4.10;;;;;;;10.20;100.00;97328.17;110382;1264;23728;-80
2023/11/05 08:27:10;;;;;;;8.30;4.60;;;;;;;10.23;100.00;97320.86;110444;1264;21975;-78
2023/11/05 08:29:48;;;;;;;6.60;4.30;;;;;;;10.27;100.00;97316.48;109525;1268;22432;-79
2023/11/05 08:32:45;;;;;;;7.40;5.60;;;;;;;10.28;100.00;97312.00;109357;1268;23036;-81
2023/11/05 08:35:45;;;;;;;8.40;4.30;;;;;;;10.34;100.00;97308.73;109849;1261;21981;-79
2023/11/05 08:38:27;;;;;;;6.40;4.20;;;;;;;10.39;100.00;97308.52;109667;1269;23065;-81
2023/11/05 08:41:01;;;;;;;;;;;;;;;10.44;100.00;97299.58;109971;1271;23836;-81
2023/11/05 08:43:38;;;;;;;9.10;6.10;;;;;;;10.41;100.00;97296.22;109666;1271;21995;-79
2023/11/05 08:46:23;;;;;;;5.70;3.50;;;;;;;10.43;100.00;97294.94;109982;1270;23056;-78
2023/11/05 08:48:59;;;;;;;4.80;3.90;;;;;;;10.44;100.00;97290.38;108939;1277;23631;-78
2023/11/05 08:51:45;;;;;;;4.10;3.30;;;;;;;10.48;100.00;97293.09;108913;1277;22013;-80
2023/11/05 08:54:15;;;;;;;5.90;4.20;;;;;;;10.56;100.00;97295.05;109220;1272;21950;-79
2023/11/05 08:56:48;;;;;;;5.00;3.90;;;;;;;10.60;100.00;97293.20;109509;1265;21997;-79
2023/11/05 08:59:23;;;;;;;5.90;4.30;;;;;;;10.63;100.00;97290.69;109306;1270;22198;-79
2023/11/05 09:02:10;;;;;;;5.40;4.10;;;;;;;10.67;100.00;97287.88;109330;1272;23621;-78
2023/11/05 09:04:44;;;;;;;4.90;3.80;;;;;;;10.71;100.00;97281.41;108978;1277;23661;-77
2023/11/05 09:07:29;;;;;;;4.50;3.80;;;;;;;10.75;100.00;97278.99;109222;1271;22736;-77
2023/11/05 09:10:03;;;;;;;8.90;4.60;;;;;;;10.83;100.00;97279.88;109066;1276;22470;-77
2023/11/05 09:12:36;;;;;;;6.30;4.30;;;;;;;10.89;100.00;97279.00;108907;1276;22001;-77
2023/11/05 09:15:15;;;;;;;6.70;4.90;;;;;;;10.89;100.00;97278.96;108934;1276;21985;-76
2023/11/05 09:17:59;;;;;;;7.80;4.80;;;;;;;10.89;100.00;97273.61;108820;1280;22014;-79
2023/11/05 09:20:55;;;;;;;8.10;5.50;;;;;;;10.92;100.00;97266.53;108750;1281;23580;-79
2023/11/05 09:23:32;;;;;;;9.90;5.70;;;;;;;10.92;100.00;97263.98;108735;1279;23078;-77
2023/11/05 09:26:18;;;;;;;11.50;7.40;;;;;;;10.96;100.00;97264.25;108602;1284;22180;-75
2023/11/05 09:29:10;;;;;;;13.00;7.40;;;;;;;11.06;100.00;97273.13;108833;1281;22466;-78
2023/11/05 09:31:49;;;;;;;8.00;6.20;;;;;;;11.11;100.00;97273.17;108663;1281;22070;-76
2023/11/05 09:34:43;;;;;;;10.30;5.90;;;;;;;11.15;100.00;97274.23;108815;1281;22001;-77
2023/11/05 09:37:27;;;;;;;6.50;4.80;;;;;;;11.17;100.00;97280.52;108822;1277;21994;-75
2023/11/05 09:39:59;;;;;;;12.00;10.00;;;;;;;11.22;100.00;97282.64;108498;1281;21990;-75
2023/11/05 09:43:01;;;;;;;11.70;9.90;;;;;;;11.28;100.00;97281.75;108447;1286;23703;-80
2023/11/05 09:46:09;;;;;;;11.40;7.30;;;;;;;11.38;100.00;97279.84;108875;1280;23816;-80
2023/11/05 09:48:50;;;;;;;9.20;6.60;;;;;;;11.46;100.00;97272.34;108985;1274;23763;-79
2023/11/05 09:51:34;;;;;;;8.70;6.00;;;;;;;11.47;100.00;97268.27;109483;1274;21979;-80
2023/11/05 09:54:05;;;;;;;8.90;4.80;;;;;;;11.49;100.00;97267.02;108991;1276;23731;-79
2023/11/05 09:56:49;;;;;;;7.20;5.90;;;;;;;11.46;100.00;97263.10;109134;1276;22036;-79
2023/11/05 09:59:28;;;;;;;9.80;6.70;;;;;;;11.40;100.00;97253.40;109137;1271;24604;-78
2023/11/05 10:02:20;;;;;;;12.30;8.90;;;;;;;11.46;100.00;97259.86;109518;1271;23709;-77
2023/11/05 10:05:04;;;;;;;7.70;5.10;;;;;;;11.47;100.00;97257.44;109316;1268;23044;-77
2023/11/05 10:07:55;;;;;;;9.90;6.60;;;;;;;11.46;100.00;97260.05;109312;1270;22492;-75
2023/11/05 10:10:56;;;;;;;9.80;6.80;;;;;;;11.42;100.00;97266.45;109446;1270;21989;-77
2023/11/05 10:13:32;;;;;;;6.60;5.30;;;;;;;11.38;100.00;97265.98;109337;1270;21984;-78
2023/11/05 10:16:17;;;;;;;8.70;5.40;;;;;;;11.33;100.00;97259.29;109322;1271;22733;-76
2023/11/05 10:19:14;;;;;;;7.30;5.90;;;;;;;11.27;100.00;97257.15;109932;1265;22020;-80
2023/11/05 10:22:20;;;;;;;8.40;5.10;;;;;;;11.28;100.00;97259.35;109326;1272;22084;-80
2023/11/05 10:24:52;;;;;;;7.60;6.00;;;;;;;11.29;100.00;97254.15;109413;1272;22013;-78
2023/11/05 10:27:35;;;;;;;8.70;5.10;;;;;;;11.32;100.00;97249.20;109375;1272;22252;-78
2023/11/05 10:30:32;;;;;;;10.20;5.40;;;;;;;11.26;100.00;97233.45;109178;1275;23663;-78
2023/11/05 10:33:18;;;;;;;6.20;4.60;;;;;;;11.30;100.00;97241.39;109117;1271;21993;-76
2023/11/05 10:36:00;;;;;;;6.90;5.30;;;;;;;11.30;100.00;97241.79;109179;1275;21997;-76
2023/11/05 10:38:33;;;;;;;8.60;5.30;;;;;;;11.28;100.00;97241.59;108790;1279;22038;-78
2023/11/05 10:41:37;;;;;;;8.40;5.90;;;;;;;11.25;100.00;97246.38;108930;1275;24118;-76
2023/11/05 10:44:14;;;;;;;8.10;5.10;;;;;;;11.27;100.00;97251.79;109076;1275;22070;-76
2023/11/05 10:47:07;;;;;;;7.50;5.60;;;;;;;11.30;100.00;97255.20;108901;1275;21992;-77
2023/11/05 10:49:59;;;;;;;7.90;5.30;;;;;;;11.31;100.00;97253.71;109542;1270;21979;-75
2023/11/05 10:52:59;;;;;;;6.40;4.00;;;;;;;11.27;100.00;97251.11;109516;1270;21975;-76
2023/11/05 10:55:58;;;;;;;7.90;4.70;;;;;;;11.22;100.00;97245.42;109416;1266;21979;-76
2023/11/05 10:59:14;;;;;;;6.60;4.20;;;;;;;11.20;100.00;97245.28;110271;1265;23636;-77
2023/11/05 11:02:13;;;;;;;;;;;;;;;11.21;100.00;97238.77;109392;1273;21988;-77
2023/11/05 11:05:10;;;;;;;5.90;4.20;;;;;;;11.16;100.00;97242.15;109061;1272;21979;-77
2023/11/05 11:07:50;;;;;;;9.70;6.00;;;;;;;11.15;100.00;97240.48;108945;1276;22930;-77
2023/11/05 11:11:03;;;;;;;7.30;5.80;;;;;;;11.16;100.00;97234.17;108768;1276;23059;-77
2023/11/05 11:13:57;;;;;;;;;;;;;;;11.18;100.00;97225.81;108841;1276;22586;-76
2023/11/05 11:16:53;;;;;;;8.00;4.50;;;;;;;11.13;100.00;97220.36;108475;1277;23256;-77
2023/11/05 11:19:48;;;;;;;10.80;8.60;;;;;;;11.13;100.00;97214.90;108392;1283;22039;-77
2023/11/05 11:22:44;;;;;;;8.80;6.60;;;;;;;11.18;100.00;97217.25;108432;1282;22003;-76
2023/11/05 11:25:30;;;;;;;16.40;8.20;;;;;;;11.25;100.00;97218.52;108384;1279;21991;-75
2023/11/05 11:28:37;;;;;;;10.80;8.30;;;;;;;11.33;100.00;97217.16;108770;1279;21997;-77
2023/11/05 11:31:18;;;;;;;8.20;5.90;;;;;;;11.40;100.00;97213.84;108650;1278;22041;-76
2023/11/05 11:33:59;;;;;;;7.20;5.40;;;;;;;11.47;100.00;97211.48;108674;1273;23856;-78
2023/11/05 11:39:35;;;;;;;8.60;7.20;;;;;;;11.53;100.00;97201.89;109619;1265;21979;-77
2023/11/05 11:42:26;;;;;;;11.20;7.70;;;;;;;11.58;100.00;97201.66;110073;1265;21949;-77
2023/11/05 11:45:11;;;;;;;9.80;7.80;;;;;;;11.61;100.00;97202.52;109668;1269;22690;-78
2023/11/05 11:48:04;;;;;;;8.70;6.40;;;;;;;11.64;100.00;97198.48;109468;1269;22069;-77
2023/11/05 11:51:08;;;;;;;6.30;5.30;;;;;;;11.65;100.00;97194.74;109697;1269;22906;-76
2023/11/05 11:53:51;;;;;;;7.20;6.30;;;;;;;11.71;100.00;97194.83;109250;1274;21985;-78
2023/11/05 11:57:02;;;;;;;9.90;6.30;;;;;;;11.76;100.00;97193.67;109099;1274;23045;-76
2023/11/05 11:59:49;;;;;;;5.50;4.80;;;;;;;11.79;100.00;97184.52;109041;1274;21944;-77
2023/11/05 12:03:11;;;;;;;10.80;9.30;;;;;;;11.77;100.00;97183.55;109193;1271;23708;-79
2023/11/05 12:05:54;;;;;;;7.20;5.70;;;;;;;11.66;100.00;97166.28;109322;1271;21993;-79
2023/11/05 12:08:46;;;;;;;9.50;6.60;;;;;;;11.79;100.00;97184.54;109025;1274;21981;-78
2023/11/05 12:11:43;;;;;;;18.00;13.90;;;;;;;11.83;100.00;97186.96;109187;1270;22036;-77
2023/11/05 12:14:32;;;;;;;19.80;14.00;;;;;;;11.81;100.00;97191.14;109023;1275;23625;-79
2023/11/05 12:17:17;;;;;;;31.50;23.20;;;;;;;11.79;100.00;97192.89;108692;1278;23494;-78
2023/11/05 12:19:57;;;;;;;15.40;10.20;;;;;;;11.78;100.00;97193.14;108743;1278;24399;-77
2023/11/05 12:22:59;;;;;;;15.10;11.70;;;;;;;11.75;100.00;97195.02;108775;1278;21996;-77
2023/11/05 12:25:37;;;;;;;14.90;11.60;;;;;;;11.76;100.00;97197.48;108551;1277;21998;-77
2023/11/05 12:28:35;;;;;;;17.20;10.40;;;;;;;11.81;100.00;97195.63;108809;1276;22895;-76
2023/11/05 12:31:33;;;;;;;17.30;12.70;;;;;;;11.77;100.00;97186.65;108868;1272;22919;-79
2023/11/05 12:34:33;;;;;;;16.20;11.60;;;;;;;11.84;100.00;97199.35;108765;1273;23001;-77
2023/11/05 12:37:21;;;;;;;11.40;7.90;;;;;;;11.88;100.00;97197.30;108907;1276;23010;-78
2023/11/05 12:40:10;;;;;;;10.00;6.70;;;;;;;11.90;100.00;97192.97;108949;1276;22003;-78
2023/11/05 12:42:56;;;;;;;13.40;7.20;;;;;;;11.90;100.00;97188.20;108957;1276;21993;-76
2023/11/05 12:45:42;;;;;;;13.70;6.70;;;;;;;11.85;100.00;97188.50;108988;1276;23045;-77
2023/11/05 12:48:33;;;;;;;;;;;;;;;;;;;;;
2023/11/05 12:51:09;;;;;;;21.40;14.70;;;;;;;11.82;100.00;97185.44;108554;1282;22020;-78
2023/11/05 12:53:51;;;;;;;13.40;10.70;;;;;;;11.83;100.00;97185.84;108843;1277;21960;-76
2023/11/05 12:56:30;;;;;;;19.40;13.80;;;;;;;11.83;100.00;97194.04;108857;1276;22008;-78
2023/11/05 12:59:15;;;;;;;23.40;12.30;;;;;;;11.81;100.00;97195.48;108774;1276;24549;-76
2023/11/05 13:02:04;;;;;;;17.70;10.10;;;;;;;11.79;100.00;97190.66;108872;1276;22020;-77
2023/11/05 13:05:00;;;;;;;11.30;7.60;;;;;;;11.77;100.00;97193.08;108984;1276;22001;-78
2023/11/05 13:07:42;;;;;;;12.80;7.90;;;;;;;11.79;100.00;97199.48;109288;1270;21984;-78
2023/11/05 13:10:30;;;;;;;10.30;6.70;;;;;;;11.80;100.00;97202.36;109402;1271;21984;-77
2023/11/05 13:13:21;;;;;;;9.40;5.90;;;;;;;11.81;100.00;97201.95;109435;1271;23615;-76
2023/11/05 13:16:00;;;;;;;7.80;5.20;;;;;;;11.79;100.00;97204.77;110169;1265;22756;-77
2023/11/05 13:19:05;;;;;;;10.60;6.20;;;;;;;11.75;100.00;97208.40;109835;1269;22763;-78
2023/11/05 13:22:13;;;;;;;10.70;6.60;;;;;;;11.70;100.00;97210.94;109737;1269;22269;-77
2023/11/05 13:24:54;;;;;;;17.20;12.50;;;;;;;11.71;100.00;97209.48;109448;1269;24913;-77
2023/11/05 13:27:44;;;;;;;11.40;8.30;;;;;;;11.71;100.00;97210.15;109466;1268;21991;-78
2023/11/05 13:30:37;;;;;;;12.60;8.40;;;;;;;11.70;100.00;97209.18;109171;1273;21993;-77
2023/11/05 13:33:21;;;;;;;9.50;6.70;;;;;;;11.69;100.00;97204.90;109112;1273;23782;-78
2023/11/05 13:36:54;;;;;;;10.50;6.30;;;;;;;11.65;100.00;97205.63;109447;1270;21984;-79